sensor_id;sensor_type;location;lat;lon;timestamp;temperature;humidity
61392;DHT22;47261;52.892;5.738;2024-03-17T00:02:08;6.10;99.90
61392;DHT22;47261;52.892;5.738;2024-03-17T00:04:34;6.10;99.90
61392;DHT22;47261;52.892;5.738;2024-03-17T00:07:00;6.10;99.90
61392;DHT22;47261;52.892;5.738;2024-03-17T00:09:26;6.00;99.90
61392;DHT22;47261;52.892;5.738;2024-03-17T00:11:51;6.00;99.90
61392;DHT22;47261;52.892;5.738;2024-03-17T00:14:17;6.00;99.90
61392;DHT22;47261;52.892;5.738;2024-03-17T00:16:44;6.00;99.90
61392;DHT22;47261;52.892;5.738;2024-03-17T00:19:09;5.90;99.90
61392;DHT22;47261;52.892;5.738;2024-03-17T00:21:36;5.90;99.90
61392;DHT22;47261;52.892;5.738;2024-03-17T00:24:01;5.90;99.90
61392;DHT22;47261;52.892;5.738;2024-03-17T00:26:28;5.90;99.90
61392;DHT22;47261;52.892;5.738;2024-03-17T00:28:55;5.90;99.90
61392;DHT22;47261;52.892;5.738;2024-03-17T00:31:20;5.90;99.90
61392;DHT22;47261;52.892;5.738;2024-03-17T00:33:46;5.90;99.90
61392;DHT22;47261;52.892;5.738;2024-03-17T00:36:12;5.90;99.90
61392;DHT22;47261;52.892;5.738;2024-03-17T00:38:37;5.90;99.90
61392;DHT22;47261;52.892;5.738;2024-03-17T00:41:04;5.90;99.90
61392;DHT22;47261;52.892;5.738;2024-03-17T00:43:29;5.90;99.90
61392;DHT22;47261;52.892;5.738;2024-03-17T00:45:55;5.90;99.90
61392;DHT22;47261;52.892;5.738;2024-03-17T00:48:21;5.90;99.90
61392;DHT22;47261;52.892;5.738;2024-03-17T00:50:55;5.90;99.90
61392;DHT22;47261;52.892;5.738;2024-03-17T00:53:20;5.90;99.90
61392;DHT22;47261;52.892;5.738;2024-03-17T00:55:57;5.90;99.90
61392;DHT22;47261;52.892;5.738;2024-03-17T00:58:26;5.80;99.90
61392;DHT22;47261;52.892;5.738;2024-03-17T01:00:52;5.80;99.90
61392;DHT22;47261;52.892;5.738;2024-03-17T01:03:18;5.80;99.90
61392;DHT22;47261;52.892;5.738;2024-03-17T01:05:44;5.80;99.90
61392;DHT22;47261;52.892;5.738;2024-03-17T01:08:15;5.80;99.90
61392;DHT22;47261;52.892;5.738;2024-03-17T01:10:41;5.70;99.90
61392;DHT22;47261;52.892;5.738;2024-03-17T01:13:08;5.70;99.90
61392;DHT22;47261;52.892;5.738;2024-03-17T01:15:38;5.80;99.90
61392;DHT22;47261;52.892;5.738;2024-03-17T01:18:04;5.80;99.90
61392;DHT22;47261;52.892;5.738;2024-03-17T01:20:35;5.80;99.90
61392;DHT22;47261;52.892;5.738;2024-03-17T01:23:02;5.80;99.90
61392;DHT22;47261;52.892;5.738;2024-03-17T01:25:27;5.80;99.90
61392;DHT22;47261;52.892;5.738;2024-03-17T01:27:55;5.80;99.90
61392;DHT22;47261;52.892;5.738;2024-03-17T01:30:21;5.80;99.90
61392;DHT22;47261;52.892;5.738;2024-03-17T01:32:47;5.80;99.90
61392;DHT22;47261;52.892;5.738;2024-03-17T01:35:14;5.80;99.90
61392;DHT22;47261;52.892;5.738;2024-03-17T01:37:40;5.70;99.90
61392;DHT22;47261;52.892;5.738;2024-03-17T01:40:06;5.80;99.90
61392;DHT22;47261;52.892;5.738;2024-03-17T01:42:39;5.70;99.90
61392;DHT22;47261;52.892;5.738;2024-03-17T01:45:24;5.80;99.90
61392;DHT22;47261;52.892;5.738;2024-03-17T01:47:52;5.80;99.90
61392;DHT22;47261;52.892;5.738;2024-03-17T01:50:18;5.80;99.90
61392;DHT22;47261;52.892;5.738;2024-03-17T01:52:56;5.80;99.90
61392;DHT22;47261;52.892;5.738;2024-03-17T01:55:22;5.80;99.90
61392;DHT22;47261;52.892;5.738;2024-03-17T01:57:50;5.80;99.90
61392;DHT22;47261;52.892;5.738;2024-03-17T02:00:16;5.90;99.90
61392;DHT22;47261;52.892;5.738;2024-03-17T02:02:41;5.90;99.90
61392;DHT22;47261;52.892;5.738;2024-03-17T02:05:07;5.90;99.90
61392;DHT22;47261;52.892;5.738;2024-03-17T02:07:34;5.90;99.90
61392;DHT22;47261;52.892;5.738;2024-03-17T02:09:59;6.00;99.90
61392;DHT22;47261;52.892;5.738;2024-03-17T02:12:25;6.00;99.90
61392;DHT22;47261;52.892;5.738;2024-03-17T02:14:51;6.10;99.90
61392;DHT22;47261;52.892;5.738;2024-03-17T02:17:17;6.10;99.90
61392;DHT22;47261;52.892;5.738;2024-03-17T02:19:42;6.10;99.90
61392;DHT22;47261;52.892;5.738;2024-03-17T02:22:13;6.10;99.90
61392;DHT22;47261;52.892;5.738;2024-03-17T02:24:39;6.10;99.90
61392;DHT22;47261;52.892;5.738;2024-03-17T02:27:05;6.10;99.90
61392;DHT22;47261;52.892;5.738;2024-03-17T02:29:30;6.10;99.90
61392;DHT22;47261;52.892;5.738;2024-03-17T02:31:56;6.10;99.90
61392;DHT22;47261;52.892;5.738;2024-03-17T02:34:21;6.10;99.90
61392;DHT22;47261;52.892;5.738;2024-03-17T02:36:47;6.10;99.90
61392;DHT22;47261;52.892;5.738;2024-03-17T02:39:13;6.10;99.90
61392;DHT22;47261;52.892;5.738;2024-03-17T02:41:57;6.10;99.90
61392;DHT22;47261;52.892;5.738;2024-03-17T02:44:22;6.10;99.90
61392;DHT22;47261;52.892;5.738;2024-03-17T02:46:48;6.10;99.90
61392;DHT22;47261;52.892;5.738;2024-03-17T02:49:14;6.10;99.90
61392;DHT22;47261;52.892;5.738;2024-03-17T02:51:43;6.10;99.90
61392;DHT22;47261;52.892;5.738;2024-03-17T02:54:09;6.10;99.90
61392;DHT22;47261;52.892;5.738;2024-03-17T02:56:35;6.10;99.90
61392;DHT22;47261;52.892;5.738;2024-03-17T02:59:00;6.10;99.90
61392;DHT22;47261;52.892;5.738;2024-03-17T03:01:26;6.00;99.90
61392;DHT22;47261;52.892;5.738;2024-03-17T03:03:52;6.10;99.90
61392;DHT22;47261;52.892;5.738;2024-03-17T03:06:17;6.10;99.90
61392;DHT22;47261;52.892;5.738;2024-03-17T03:08:45;6.10;99.90
61392;DHT22;47261;52.892;5.738;2024-03-17T03:11:15;6.10;99.90
61392;DHT22;47261;52.892;5.738;2024-03-17T03:13:42;6.10;99.90
61392;DHT22;47261;52.892;5.738;2024-03-17T03:16:10;6.10;99.90
61392;DHT22;47261;52.892;5.738;2024-03-17T03:18:37;6.00;99.90
61392;DHT22;47261;52.892;5.738;2024-03-17T03:21:03;6.00;99.90
61392;DHT22;47261;52.892;5.738;2024-03-17T03:23:30;6.10;99.90
61392;DHT22;47261;52.892;5.738;2024-03-17T03:25:56;6.10;99.90
61392;DHT22;47261;52.892;5.738;2024-03-17T03:28:23;6.10;99.90
61392;DHT22;47261;52.892;5.738;2024-03-17T03:30:49;6.10;99.90
61392;DHT22;47261;52.892;5.738;2024-03-17T03:33:14;6.00;99.90
61392;DHT22;47261;52.892;5.738;2024-03-17T03:35:40;6.10;99.90
61392;DHT22;47261;52.892;5.738;2024-03-17T03:38:05;6.00;99.90
61392;DHT22;47261;52.892;5.738;2024-03-17T03:40:31;6.10;99.90
61392;DHT22;47261;52.892;5.738;2024-03-17T03:42:58;6.10;99.90
61392;DHT22;47261;52.892;5.738;2024-03-17T03:45:23;6.10;99.90
61392;DHT22;47261;52.892;5.738;2024-03-17T03:47:50;6.10;99.90
61392;DHT22;47261;52.892;5.738;2024-03-17T03:50:22;6.10;99.90
61392;DHT22;47261;52.892;5.738;2024-03-17T03:52:48;6.10;99.90
61392;DHT22;47261;52.892;5.738;2024-03-17T03:55:16;6.20;99.90
61392;DHT22;47261;52.892;5.738;2024-03-17T03:57:42;6.20;99.90
61392;DHT22;47261;52.892;5.738;2024-03-17T04:00:08;6.20;99.90
61392;DHT22;47261;52.892;5.738;2024-03-17T04:02:43;6.30;99.90
61392;DHT22;47261;52.892;5.738;2024-03-17T04:05:10;6.30;99.90
61392;DHT22;47261;52.892;5.738;2024-03-17T04:07:36;6.30;99.90
61392;DHT22;47261;52.892;5.738;2024-03-17T04:10:03;6.30;99.90
61392;DHT22;47261;52.892;5.738;2024-03-17T04:12:29;6.30;99.90
61392;DHT22;47261;52.892;5.738;2024-03-17T04:15:01;6.30;99.90
61392;DHT22;47261;52.892;5.738;2024-03-17T04:17:28;6.30;99.90
61392;DHT22;47261;52.892;5.738;2024-03-17T04:19:54;6.30;99.90
61392;DHT22;47261;52.892;5.738;2024-03-17T04:22:21;6.30;99.90
61392;DHT22;47261;52.892;5.738;2024-03-17T04:24:48;6.30;99.90
61392;DHT22;47261;52.892;5.738;2024-03-17T04:27:23;6.30;99.90
61392;DHT22;47261;52.892;5.738;2024-03-17T04:29:53;6.40;99.90
61392;DHT22;47261;52.892;5.738;2024-03-17T04:32:22;6.40;99.90
61392;DHT22;47261;52.892;5.738;2024-03-17T04:34:48;6.40;99.90
61392;DHT22;47261;52.892;5.738;2024-03-17T04:37:14;6.50;99.90
61392;DHT22;47261;52.892;5.738;2024-03-17T04:39:44;6.40;99.90
61392;DHT22;47261;52.892;5.738;2024-03-17T04:42:11;6.50;99.90
61392;DHT22;47261;52.892;5.738;2024-03-17T04:44:37;6.50;99.90
61392;DHT22;47261;52.892;5.738;2024-03-17T04:47:03;6.50;99.90
61392;DHT22;47261;52.892;5.738;2024-03-17T04:49:42;6.50;99.90
61392;DHT22;47261;52.892;5.738;2024-03-17T04:52:09;6.50;99.90
61392;DHT22;47261;52.892;5.738;2024-03-17T04:54:34;6.60;99.90
61392;DHT22;47261;52.892;5.738;2024-03-17T04:57:00;6.60;99.90
61392;DHT22;47261;52.892;5.738;2024-03-17T04:59:26;6.60;99.90
61392;DHT22;47261;52.892;5.738;2024-03-17T05:01:53;6.60;99.90
61392;DHT22;47261;52.892;5.738;2024-03-17T05:04:18;6.60;99.90
61392;DHT22;47261;52.892;5.738;2024-03-17T05:06:44;6.60;99.90
61392;DHT22;47261;52.892;5.738;2024-03-17T05:09:14;6.60;99.90
61392;DHT22;47261;52.892;5.738;2024-03-17T05:11:40;6.60;99.90
61392;DHT22;47261;52.892;5.738;2024-03-17T05:14:06;6.60;99.90
61392;DHT22;47261;52.892;5.738;2024-03-17T05:16:32;6.60;99.90
61392;DHT22;47261;52.892;5.738;2024-03-17T05:18:57;6.60;99.90
61392;DHT22;47261;52.892;5.738;2024-03-17T05:21:23;6.60;99.90
61392;DHT22;47261;52.892;5.738;2024-03-17T05:23:49;6.60;99.90
61392;DHT22;47261;52.892;5.738;2024-03-17T05:26:15;6.60;99.90
61392;DHT22;47261;52.892;5.738;2024-03-17T05:28:41;6.60;99.90
61392;DHT22;47261;52.892;5.738;2024-03-17T05:31:06;6.60;99.90
61392;DHT22;47261;52.892;5.738;2024-03-17T05:33:32;6.60;99.90
61392;DHT22;47261;52.892;5.738;2024-03-17T05:35:59;6.60;99.90
61392;DHT22;47261;52.892;5.738;2024-03-17T05:38:26;6.60;99.90
61392;DHT22;47261;52.892;5.738;2024-03-17T05:41:03;6.60;99.90
61392;DHT22;47261;52.892;5.738;2024-03-17T05:43:31;6.60;99.90
61392;DHT22;47261;52.892;5.738;2024-03-17T05:45:59;6.60;99.90
61392;DHT22;47261;52.892;5.738;2024-03-17T05:48:26;6.50;99.90
61392;DHT22;47261;52.892;5.738;2024-03-17T05:50:52;6.60;99.90
61392;DHT22;47261;52.892;5.738;2024-03-17T05:53:19;6.60;99.90
61392;DHT22;47261;52.892;5.738;2024-03-17T05:55:45;6.60;99.90
61392;DHT22;47261;52.892;5.738;2024-03-17T05:58:11;6.60;99.90
61392;DHT22;47261;52.892;5.738;2024-03-17T06:00:37;6.60;99.90
61392;DHT22;47261;52.892;5.738;2024-03-17T06:03:04;6.60;99.90
61392;DHT22;47261;52.892;5.738;2024-03-17T06:05:35;6.60;99.90
61392;DHT22;47261;52.892;5.738;2024-03-17T06:08:04;6.60;99.90
61392;DHT22;47261;52.892;5.738;2024-03-17T06:10:31;6.60;99.90
61392;DHT22;47261;52.892;5.738;2024-03-17T06:12:58;6.60;99.90
61392;DHT22;47261;52.892;5.738;2024-03-17T06:15:24;6.60;99.90
61392;DHT22;47261;52.892;5.738;2024-03-17T06:17:51;6.60;99.90
61392;DHT22;47261;52.892;5.738;2024-03-17T06:20:20;6.60;99.90
61392;DHT22;47261;52.892;5.738;2024-03-17T06:22:46;6.60;99.90
61392;DHT22;47261;52.892;5.738;2024-03-17T06:25:12;6.60;99.90
61392;DHT22;47261;52.892;5.738;2024-03-17T06:27:38;6.70;99.90
61392;DHT22;47261;52.892;5.738;2024-03-17T06:30:04;6.70;99.90
61392;DHT22;47261;52.892;5.738;2024-03-17T06:32:33;6.70;99.90
61392;DHT22;47261;52.892;5.738;2024-03-17T06:35:01;6.70;99.90
61392;DHT22;47261;52.892;5.738;2024-03-17T06:37:27;6.70;99.90
61392;DHT22;47261;52.892;5.738;2024-03-17T06:39:52;6.70;99.90
61392;DHT22;47261;52.892;5.738;2024-03-17T06:42:19;6.70;99.90
61392;DHT22;47261;52.892;5.738;2024-03-17T06:44:44;6.70;99.90
61392;DHT22;47261;52.892;5.738;2024-03-17T06:47:10;6.80;99.90
61392;DHT22;47261;52.892;5.738;2024-03-17T06:49:36;6.80;99.90
61392;DHT22;47261;52.892;5.738;2024-03-17T06:52:02;6.90;99.90
61392;DHT22;47261;52.892;5.738;2024-03-17T06:54:28;6.90;99.90
61392;DHT22;47261;52.892;5.738;2024-03-17T06:56:53;6.90;99.90
61392;DHT22;47261;52.892;5.738;2024-03-17T06:59:19;7.00;99.90
61392;DHT22;47261;52.892;5.738;2024-03-17T07:01:46;7.00;99.90
61392;DHT22;47261;52.892;5.738;2024-03-17T07:04:12;7.00;99.90
61392;DHT22;47261;52.892;5.738;2024-03-17T07:06:38;7.10;99.90
61392;DHT22;47261;52.892;5.738;2024-03-17T07:09:04;7.10;99.90
61392;DHT22;47261;52.892;5.738;2024-03-17T07:11:30;7.10;99.90
61392;DHT22;47261;52.892;5.738;2024-03-17T07:13:57;7.20;99.90
61392;DHT22;47261;52.892;5.738;2024-03-17T07:16:22;7.20;99.90
61392;DHT22;47261;52.892;5.738;2024-03-17T07:18:50;7.30;99.90
61392;DHT22;47261;52.892;5.738;2024-03-17T07:21:16;7.30;99.90
61392;DHT22;47261;52.892;5.738;2024-03-17T07:23:41;7.40;99.90
61392;DHT22;47261;52.892;5.738;2024-03-17T07:26:07;7.50;99.90
61392;DHT22;47261;52.892;5.738;2024-03-17T07:28:34;7.50;99.90
61392;DHT22;47261;52.892;5.738;2024-03-17T07:31:00;7.60;99.90
61392;DHT22;47261;52.892;5.738;2024-03-17T07:33:27;7.70;99.90
61392;DHT22;47261;52.892;5.738;2024-03-17T07:35:54;7.70;99.90
61392;DHT22;47261;52.892;5.738;2024-03-17T07:38:23;7.80;99.90
61392;DHT22;47261;52.892;5.738;2024-03-17T07:41:03;7.90;99.90
61392;DHT22;47261;52.892;5.738;2024-03-17T07:43:31;8.00;99.90
61392;DHT22;47261;52.892;5.738;2024-03-17T07:46:01;8.00;99.90
61392;DHT22;47261;52.892;5.738;2024-03-17T07:48:27;8.10;99.90
61392;DHT22;47261;52.892;5.738;2024-03-17T07:51:01;8.20;99.90
61392;DHT22;47261;52.892;5.738;2024-03-17T07:53:31;8.20;99.90
61392;DHT22;47261;52.892;5.738;2024-03-17T07:56:00;8.30;99.90
61392;DHT22;47261;52.892;5.738;2024-03-17T07:58:27;8.40;99.90
61392;DHT22;47261;52.892;5.738;2024-03-17T08:00:57;8.50;99.90
61392;DHT22;47261;52.892;5.738;2024-03-17T08:03:25;8.50;99.90
61392;DHT22;47261;52.892;5.738;2024-03-17T08:05:51;8.60;99.90
61392;DHT22;47261;52.892;5.738;2024-03-17T08:08:18;8.70;99.90
61392;DHT22;47261;52.892;5.738;2024-03-17T08:10:44;8.70;99.90
61392;DHT22;47261;52.892;5.738;2024-03-17T08:13:10;8.80;99.90
61392;DHT22;47261;52.892;5.738;2024-03-17T08:15:36;8.80;99.90
61392;DHT22;47261;52.892;5.738;2024-03-17T08:18:02;8.80;99.90
61392;DHT22;47261;52.892;5.738;2024-03-17T08:20:29;8.90;99.90
61392;DHT22;47261;52.892;5.738;2024-03-17T08:22:55;9.00;99.90
61392;DHT22;47261;52.892;5.738;2024-03-17T08:25:21;9.00;99.90
61392;DHT22;47261;52.892;5.738;2024-03-17T08:27:47;9.10;99.90
61392;DHT22;47261;52.892;5.738;2024-03-17T08:30:13;9.10;99.90
61392;DHT22;47261;52.892;5.738;2024-03-17T08:32:39;9.30;99.90
61392;DHT22;47261;52.892;5.738;2024-03-17T08:35:05;9.50;99.90
61392;DHT22;47261;52.892;5.738;2024-03-17T08:37:31;9.60;99.90
61392;DHT22;47261;52.892;5.738;2024-03-17T08:39:57;9.80;99.90
61392;DHT22;47261;52.892;5.738;2024-03-17T08:42:22;9.80;99.90
61392;DHT22;47261;52.892;5.738;2024-03-17T08:44:48;9.90;99.90
61392;DHT22;47261;52.892;5.738;2024-03-17T08:47:14;10.10;99.90
61392;DHT22;47261;52.892;5.738;2024-03-17T08:49:39;10.20;99.90
61392;DHT22;47261;52.892;5.738;2024-03-17T08:52:05;10.40;99.90
61392;DHT22;47261;52.892;5.738;2024-03-17T08:54:31;10.60;99.90
61392;DHT22;47261;52.892;5.738;2024-03-17T08:56:56;10.70;99.90
61392;DHT22;47261;52.892;5.738;2024-03-17T08:59:22;10.80;99.90
61392;DHT22;47261;52.892;5.738;2024-03-17T09:01:47;10.80;99.90
61392;DHT22;47261;52.892;5.738;2024-03-17T09:04:13;10.90;99.90
61392;DHT22;47261;52.892;5.738;2024-03-17T09:06:39;10.90;99.90
61392;DHT22;47261;52.892;5.738;2024-03-17T09:09:05;11.00;99.90
61392;DHT22;47261;52.892;5.738;2024-03-17T09:11:31;11.00;99.90
61392;DHT22;47261;52.892;5.738;2024-03-17T09:13:57;11.10;99.90
61392;DHT22;47261;52.892;5.738;2024-03-17T09:16:24;11.20;99.90
61392;DHT22;47261;52.892;5.738;2024-03-17T09:18:51;11.10;99.90
61392;DHT22;47261;52.892;5.738;2024-03-17T09:21:16;11.10;99.90
61392;DHT22;47261;52.892;5.738;2024-03-17T09:23:43;11.10;99.90
61392;DHT22;47261;52.892;5.738;2024-03-17T09:26:09;11.00;99.90
61392;DHT22;47261;52.892;5.738;2024-03-17T09:28:37;11.00;99.90
61392;DHT22;47261;52.892;5.738;2024-03-17T09:31:03;10.90;99.90
61392;DHT22;47261;52.892;5.738;2024-03-17T09:33:32;10.90;99.90
61392;DHT22;47261;52.892;5.738;2024-03-17T09:38:24;10.90;99.90
61392;DHT22;47261;52.892;5.738;2024-03-17T09:40:50;10.80;99.90
61392;DHT22;47261;52.892;5.738;2024-03-17T09:43:23;10.80;99.90
61392;DHT22;47261;52.892;5.738;2024-03-17T09:45:49;10.80;99.90
61392;DHT22;47261;52.892;5.738;2024-03-17T09:48:23;10.80;99.90
61392;DHT22;47261;52.892;5.738;2024-03-17T09:50:56;10.80;99.90
61392;DHT22;47261;52.892;5.738;2024-03-17T09:53:26;10.80;99.90
61392;DHT22;47261;52.892;5.738;2024-03-17T09:55:53;10.70;99.90
61392;DHT22;47261;52.892;5.738;2024-03-17T09:58:21;10.70;99.90
61392;DHT22;47261;52.892;5.738;2024-03-17T10:00:47;10.70;99.90
61392;DHT22;47261;52.892;5.738;2024-03-17T10:03:42;10.80;99.90
61392;DHT22;47261;52.892;5.738;2024-03-17T10:06:10;10.90;99.90
61392;DHT22;47261;52.892;5.738;2024-03-17T10:08:51;10.90;99.90
61392;DHT22;47261;52.892;5.738;2024-03-17T10:11:21;10.80;99.90
61392;DHT22;47261;52.892;5.738;2024-03-17T10:13:59;10.90;99.90
61392;DHT22;47261;52.892;5.738;2024-03-17T10:16:29;10.90;99.90
61392;DHT22;47261;52.892;5.738;2024-03-17T10:21:36;10.90;99.90
61392;DHT22;47261;52.892;5.738;2024-03-17T10:24:29;10.90;99.90
61392;DHT22;47261;52.892;5.738;2024-03-17T10:26:55;11.00;99.90
61392;DHT22;47261;52.892;5.738;2024-03-17T10:31:57;11.00;99.90
61392;DHT22;47261;52.892;5.738;2024-03-17T10:34:24;11.00;99.90
61392;DHT22;47261;52.892;5.738;2024-03-17T10:36:51;11.10;99.90
61392;DHT22;47261;52.892;5.738;2024-03-17T10:39:27;11.20;99.90
61392;DHT22;47261;52.892;5.738;2024-03-17T10:42:03;11.20;99.90
61392;DHT22;47261;52.892;5.738;2024-03-17T10:44:32;11.20;99.90
61392;DHT22;47261;52.892;5.738;2024-03-17T10:47:01;11.30;99.90
61392;DHT22;47261;52.892;5.738;2024-03-17T10:49:31;11.40;99.90
61392;DHT22;47261;52.892;5.738;2024-03-17T10:52:02;11.50;99.90
61392;DHT22;47261;52.892;5.738;2024-03-17T10:54:30;11.60;99.90
61392;DHT22;47261;52.892;5.738;2024-03-17T10:59:39;11.80;99.90
61392;DHT22;47261;52.892;5.738;2024-03-17T11:02:20;11.90;99.90
61392;DHT22;47261;52.892;5.738;2024-03-17T11:04:54;12.00;99.90
61392;DHT22;47261;52.892;5.738;2024-03-17T11:07:20;12.10;99.90
61392;DHT22;47261;52.892;5.738;2024-03-17T11:09:48;12.10;99.90
61392;DHT22;47261;52.892;5.738;2024-03-17T11:12:53;12.10;99.90
61392;DHT22;47261;52.892;5.738;2024-03-17T11:15:34;12.10;99.90
61392;DHT22;47261;52.892;5.738;2024-03-17T11:20:36;12.10;99.90
61392;DHT22;47261;52.892;5.738;2024-03-17T11:23:06;12.20;99.90
61392;DHT22;47261;52.892;5.738;2024-03-17T11:28:01;12.10;99.90
61392;DHT22;47261;52.892;5.738;2024-03-17T11:39:03;12.30;99.90
61392;DHT22;47261;52.892;5.738;2024-03-17T11:41:41;12.40;99.90
61392;DHT22;47261;52.892;5.738;2024-03-17T11:46:58;12.50;99.90
61392;DHT22;47261;52.892;5.738;2024-03-17T11:49:26;12.50;99.90
61392;DHT22;47261;52.892;5.738;2024-03-17T11:51:57;12.60;99.90
61392;DHT22;47261;52.892;5.738;2024-03-17T11:54:29;12.60;99.90
61392;DHT22;47261;52.892;5.738;2024-03-17T11:57:00;12.60;99.90
61392;DHT22;47261;52.892;5.738;2024-03-17T11:59:25;12.60;99.70
61392;DHT22;47261;52.892;5.738;2024-03-17T12:01:51;12.70;99.90
61392;DHT22;47261;52.892;5.738;2024-03-17T12:04:20;12.70;99.60
61392;DHT22;47261;52.892;5.738;2024-03-17T12:06:49;12.70;99.90
61392;DHT22;47261;52.892;5.738;2024-03-17T12:09:23;12.70;99.70
61392;DHT22;47261;52.892;5.738;2024-03-17T12:12:00;12.70;99.10
61392;DHT22;47261;52.892;5.738;2024-03-17T12:14:26;12.60;98.90
61392;DHT22;47261;52.892;5.738;2024-03-17T12:16:54;12.50;98.80
61392;DHT22;47261;52.892;5.738;2024-03-17T12:19:20;12.50;98.80
61392;DHT22;47261;52.892;5.738;2024-03-17T12:21:52;12.50;99.00
61392;DHT22;47261;52.892;5.738;2024-03-17T12:24:26;12.40;99.20
61392;DHT22;47261;52.892;5.738;2024-03-17T12:26:54;12.40;99.20
61392;DHT22;47261;52.892;5.738;2024-03-17T12:29:30;12.40;99.50
61392;DHT22;47261;52.892;5.738;2024-03-17T12:31:59;12.30;99.40
61392;DHT22;47261;52.892;5.738;2024-03-17T12:34:27;12.30;99.20
61392;DHT22;47261;52.892;5.738;2024-03-17T12:36:54;12.30;99.50
61392;DHT22;47261;52.892;5.738;2024-03-17T12:39:28;12.30;99.60
61392;DHT22;47261;52.892;5.738;2024-03-17T12:44:36;12.40;99.70
61392;DHT22;47261;52.892;5.738;2024-03-17T12:47:11;12.40;99.60
61392;DHT22;47261;52.892;5.738;2024-03-17T12:49:54;12.40;99.40
61392;DHT22;47261;52.892;5.738;2024-03-17T12:52:28;12.50;99.40
61392;DHT22;47261;52.892;5.738;2024-03-17T12:57:44;12.50;99.80
61392;DHT22;47261;52.892;5.738;2024-03-17T13:00:29;12.50;99.30
61392;DHT22;47261;52.892;5.738;2024-03-17T13:02:59;12.50;99.20
61392;DHT22;47261;52.892;5.738;2024-03-17T13:05:25;12.50;99.20
61392;DHT22;47261;52.892;5.738;2024-03-17T13:07:51;12.50;99.40
61392;DHT22;47261;52.892;5.738;2024-03-17T13:10:20;12.50;99.70
61392;DHT22;47261;52.892;5.738;2024-03-17T13:12:46;12.50;99.50
61392;DHT22;47261;52.892;5.738;2024-03-17T13:15:17;12.60;99.70
61392;DHT22;47261;52.892;5.738;2024-03-17T13:17:44;12.70;99.90
61392;DHT22;47261;52.892;5.738;2024-03-17T13:20:16;12.70;99.40
61392;DHT22;47261;52.892;5.738;2024-03-17T13:22:43;12.80;99.00
61392;DHT22;47261;52.892;5.738;2024-03-17T13:25:21;12.80;99.00
61392;DHT22;47261;52.892;5.738;2024-03-17T13:27:49;12.90;98.90
61392;DHT22;47261;52.892;5.738;2024-03-17T13:30:17;12.80;98.60
61392;DHT22;47261;52.892;5.738;2024-03-17T13:32:43;12.80;98.40
61392;DHT22;47261;52.892;5.738;2024-03-17T13:35:19;12.80;98.50
61392;DHT22;47261;52.892;5.738;2024-03-17T13:37:49;12.90;98.20
61392;DHT22;47261;52.892;5.738;2024-03-17T13:40:16;12.90;98.10
61392;DHT22;47261;52.892;5.738;2024-03-17T13:42:48;12.90;98.40
61392;DHT22;47261;52.892;5.738;2024-03-17T13:45:15;12.90;98.30
61392;DHT22;47261;52.892;5.738;2024-03-17T13:47:42;12.90;98.10
61392;DHT22;47261;52.892;5.738;2024-03-17T13:50:09;12.90;98.20
61392;DHT22;47261;52.892;5.738;2024-03-17T13:52:42;13.00;98.30
61392;DHT22;47261;52.892;5.738;2024-03-17T13:55:17;13.10;98.10
61392;DHT22;47261;52.892;5.738;2024-03-17T13:57:44;13.10;97.90
61392;DHT22;47261;52.892;5.738;2024-03-17T14:00:11;13.20;97.60
61392;DHT22;47261;52.892;5.738;2024-03-17T14:02:45;13.20;97.70
61392;DHT22;47261;52.892;5.738;2024-03-17T14:05:13;13.20;97.20
61392;DHT22;47261;52.892;5.738;2024-03-17T14:07:39;13.20;97.30
61392;DHT22;47261;52.892;5.738;2024-03-17T14:10:05;13.20;97.30
61392;DHT22;47261;52.892;5.738;2024-03-17T14:12:33;13.20;97.00
61392;DHT22;47261;52.892;5.738;2024-03-17T14:14:59;13.20;97.00
61392;DHT22;47261;52.892;5.738;2024-03-17T14:17:25;13.20;97.30
61392;DHT22;47261;52.892;5.738;2024-03-17T14:19:50;13.20;97.30
61392;DHT22;47261;52.892;5.738;2024-03-17T14:22:16;13.20;97.50
61392;DHT22;47261;52.892;5.738;2024-03-17T14:24:41;13.20;96.90
61392;DHT22;47261;52.892;5.738;2024-03-17T14:27:07;13.20;96.50
61392;DHT22;47261;52.892;5.738;2024-03-17T14:29:35;13.20;96.60
61392;DHT22;47261;52.892;5.738;2024-03-17T14:32:01;13.10;96.30
61392;DHT22;47261;52.892;5.738;2024-03-17T14:34:26;13.10;96.40
61392;DHT22;47261;52.892;5.738;2024-03-17T14:36:58;13.20;96.90
61392;DHT22;47261;52.892;5.738;2024-03-17T14:39:24;13.20;96.90
61392;DHT22;47261;52.892;5.738;2024-03-17T14:41:54;13.20;96.80
61392;DHT22;47261;52.892;5.738;2024-03-17T14:44:19;13.10;97.00
61392;DHT22;47261;52.892;5.738;2024-03-17T14:46:45;13.10;96.90
61392;DHT22;47261;52.892;5.738;2024-03-17T14:49:11;13.10;97.10
61392;DHT22;47261;52.892;5.738;2024-03-17T14:51:36;13.00;97.10
61392;DHT22;47261;52.892;5.738;2024-03-17T14:54:02;13.10;97.30
61392;DHT22;47261;52.892;5.738;2024-03-17T14:56:29;13.10;97.50
61392;DHT22;47261;52.892;5.738;2024-03-17T14:58:54;13.10;97.60
61392;DHT22;47261;52.892;5.738;2024-03-17T15:01:20;13.00;97.60
61392;DHT22;47261;52.892;5.738;2024-03-17T15:03:46;12.90;97.70
61392;DHT22;47261;52.892;5.738;2024-03-17T15:06:15;12.90;97.70
61392;DHT22;47261;52.892;5.738;2024-03-17T15:08:44;12.90;97.80
61392;DHT22;47261;52.892;5.738;2024-03-17T15:11:10;12.90;97.80
61392;DHT22;47261;52.892;5.738;2024-03-17T15:13:36;12.80;97.70
61392;DHT22;47261;52.892;5.738;2024-03-17T15:16:05;12.80;97.80
61392;DHT22;47261;52.892;5.738;2024-03-17T15:18:33;12.80;98.00
61392;DHT22;47261;52.892;5.738;2024-03-17T15:21:02;12.70;98.00
61392;DHT22;47261;52.892;5.738;2024-03-17T15:23:31;12.70;98.00
61392;DHT22;47261;52.892;5.738;2024-03-17T15:26:00;12.70;98.00
61392;DHT22;47261;52.892;5.738;2024-03-17T15:28:27;12.70;98.00
61392;DHT22;47261;52.892;5.738;2024-03-17T15:30:52;12.60;98.10
61392;DHT22;47261;52.892;5.738;2024-03-17T15:33:18;12.60;98.20
61392;DHT22;47261;52.892;5.738;2024-03-17T15:35:43;12.60;98.20
61392;DHT22;47261;52.892;5.738;2024-03-17T15:38:10;12.60;98.30
61392;DHT22;47261;52.892;5.738;2024-03-17T15:40:37;12.60;98.30
61392;DHT22;47261;52.892;5.738;2024-03-17T15:43:03;12.50;98.20
61392;DHT22;47261;52.892;5.738;2024-03-17T15:45:29;12.50;98.30
61392;DHT22;47261;52.892;5.738;2024-03-17T15:47:55;12.50;98.30
61392;DHT22;47261;52.892;5.738;2024-03-17T15:50:22;12.50;98.40
61392;DHT22;47261;52.892;5.738;2024-03-17T15:52:47;12.50;98.30
61392;DHT22;47261;52.892;5.738;2024-03-17T15:55:13;12.40;98.20
61392;DHT22;47261;52.892;5.738;2024-03-17T15:57:39;12.40;98.30
61392;DHT22;47261;52.892;5.738;2024-03-17T16:00:06;12.40;98.30
61392;DHT22;47261;52.892;5.738;2024-03-17T16:02:34;12.40;98.20
61392;DHT22;47261;52.892;5.738;2024-03-17T16:05:01;12.30;98.50
61392;DHT22;47261;52.892;5.738;2024-03-17T16:07:29;12.30;98.50
61392;DHT22;47261;52.892;5.738;2024-03-17T16:09:55;12.30;98.70
61392;DHT22;47261;52.892;5.738;2024-03-17T16:12:21;12.30;98.80
61392;DHT22;47261;52.892;5.738;2024-03-17T16:14:48;12.20;98.70
61392;DHT22;47261;52.892;5.738;2024-03-17T16:17:15;12.20;98.70